Aeroporto :
LOGIN :

Iscrizione | Disclaimer

   EN    FR    IT 

 










Sommario :    VFR   VFR Marginale   IFR   IFR Intensivo   IFR Molto Intensivo
Visibilità : 
Base nubi : 
>= 8 km
>= 3000ft
5 / 8 km
1000 / 3000 ft
1500m / 5 km
500 / 1000 ft
800 / 1500m
200 / 500 ft
< 800m
< 200 ft
Simboli :   Temporali  Nebbia  Neve Forte  Precipitazioni Forti  Vento > 20 kt
SIGMETs :   Varie  Temporali  Ghiacco  Turbolenza  Onda orograficha  Ceneri Vulcaniche






- Altitudine del aeroporto : 113 ft


EKRS - Ringsted

ULTIMO METAR :
  • 221320Z AUTO VRB06KT 9999 NCD 08/05 Q1029

METARs OBSOLETI :
  • 221250Z AUTO VRB06KT 9999 NCD 08/05 Q1029
  • 221220Z AUTO VRB07KT 9999 NCD 08/05 Q1029
  • 221150Z AUTO VRB06KT 9999 NCD 08/05 Q1029
  • 221120Z AUTO VRB09G19KT 9999 NCD 08/05 Q1029
  • 221050Z AUTO VRB08KT 9999 NCD 07/06 Q1029

TAF N/A



MetMap, La meteo Aeronautica in un colpo d'occhio ! - Copyright ORBIFLY Dicembre 2007 - Disclaimer

ORBIFLY MET'MAP TEAM :

Programmazione e sviluppo : Alexandra Zaïnal
Concezione : Baudouin d'Aumeries
Aiuto per la programmazione : Marc-Olivier Méhu
Supporto tecnico e logistico : Manuel Goepfert
Aiuto per la traduzione : Arnaldo La Scala

Contatto : metmap@orbifly.com




FONTI E CREDITI :

   NOAA